Time;durP1;ratioP1;P1;durP2;ratioP2;P2;SDS_P1;SDS_P2;PMS_P1;PMS_P2;Temp;Humidity;BMP_temperature;BMP_pressure;BME280_temperature;BME280_humidity;BME280_pressure;Samples;Min_cycle;Max_cycle;Signal;HPM_P1;HPM_P2
2022/02/11 00:08:44;;;;;;;;;;;;;;;23.36;20.53;98488.03;4919652;29;1124;-71
2022/02/11 00:11:09;;;;;;;;;;;;;;;23.50;20.63;98480.38;4919676;29;1068;-71
2022/02/11 00:13:35;;;;;;;;;;;;;;;23.85;19.88;98479.41;4919397;29;1211;-71
2022/02/11 00:16:00;;;;;;;;;;;;;;;23.33;20.62;98471.88;4919598;29;1895;-71
2022/02/11 00:18:26;;;;;;;;;;;;;;;22.97;20.98;98482.53;4919758;29;1064;-71
2022/02/11 00:20:52;;;;;;;;;;;;;;;23.11;20.98;98482.19;4919213;29;1011;-71
2022/02/11 00:23:18;;;;;;;;;;;;;;;23.56;20.49;98478.56;4955297;28;929;-71
2022/02/11 00:25:52;;;;;;;;;;;;;;;23.45;20.51;98478.06;4957419;28;1042;-71
2022/02/11 00:33:36;;;;;;;;;;;;;;;22.79;21.17;98471.56;4918963;29;930;-71
2022/02/11 00:36:07;;;;;;;;;;;;;;;23.26;20.69;98477.75;4918743;29;1970;-71
2022/02/11 01:05:42;;;;;;;;;;;;;;;23.09;21.04;98450.59;4856344;29;1035;-71
2022/02/11 01:08:07;;;;;;;;;;;;;;;23.26;20.69;98443.69;4844233;29;1114;-71
2022/02/11 01:10:33;;;;;;;;;;;;;;;23.69;20.61;98436.84;4844060;29;1084;-71
2022/02/11 01:12:59;;;;;;;;;;;;;;;23.26;20.51;98431.50;4867295;29;1597;-71
2022/02/11 01:15:26;;;;;;;;;;;;;;;23.23;20.70;98433.19;4880797;29;1903;-71
2022/02/11 01:17:58;;;;;;;;;;;;;;;22.67;21.56;98426.91;4880793;29;1063;-71
2022/02/11 01:23:46;;;;;;;;;;;;;;;23.56;20.25;98416.09;4880694;29;1290;-71
2022/02/11 01:31:59;;;;;;;;;;;;;;;23.38;20.81;98417.38;4880424;29;1181;-71
2022/02/11 01:34:54;;;;;;;;;;;;;;;23.73;20.18;98409.16;4880290;29;1100;-71
2022/02/11 01:50:32;;;;;;;;;;;;;;;23.05;21.13;98404.47;4831994;29;1102;-71
2022/02/11 01:53:09;;;;;;;;;;;;;;;23.62;20.62;98411.44;4843170;29;896;-71
2022/02/11 02:06:38;;;;;;;;;;;;;;;23.47;20.89;98390.38;4880057;29;906;-71
2022/02/11 02:22:50;;;;;;;;;;;;;;;23.26;20.71;98395.41;4890347;29;1076;-71
2022/02/11 02:25:27;;;;;;;;;;;;;;;23.02;21.07;98396.88;4898624;29;1079;-71
2022/02/11 02:36:22;;;;;;;;;;;;;;;22.99;21.08;98375.03;4875480;29;1910;-71
2022/02/11 02:58:11;;;;;;;;;;;;;;;22.98;21.24;98377.09;4807220;29;1034;-71
2022/02/11 03:01:13;;;;;;;;;;;;;;;22.87;21.50;98371.66;4773801;30;1018;-71
2022/02/11 03:50:35;;;;;;;;;;;;;;;23.22;20.97;98383.34;4882595;29;969;-71
2022/02/11 04:55:06;;;;;;;;;;;;;;;23.59;20.44;98370.53;4957163;29;1043;-71
2022/02/11 05:00:15;;;;;;;;;;;;;;;22.92;21.45;98372.41;4956672;28;1284;-71
2022/02/11 05:02:45;;;;;;;;;;;;;;;23.11;21.40;98383.66;4959821;28;2075;-71
2022/02/11 05:05:11;;;;;;;;;;;;;;;23.78;20.33;98371.66;4934085;29;2130;-71
2022/02/11 05:07:36;;;;;;;;;;;;;;;23.61;20.55;98372.91;4899779;29;1152;-71
2022/02/11 05:10:02;;;;;;;;;;;;;;;22.99;21.16;98377.88;4899594;29;1132;-71
2022/02/11 05:12:28;;;;;;;;;;;;;;;22.32;22.14;98381.91;4899723;29;1278;-71
2022/02/11 05:14:53;;;;;;;;;;;;;;;23.42;21.00;98382.41;4905032;29;1053;-71
2022/02/11 05:17:19;;;;;;;;;;;;;;;23.84;20.57;98380.41;4918342;29;1918;-71
2022/02/11 05:19:44;;;;;;;;;;;;;;;23.30;20.94;98370.53;4916700;29;1689;-71
2022/02/11 05:22:10;;;;;;;;;;;;;;;22.95;21.56;98377.16;4899192;29;1049;-71
2022/02/11 05:24:35;;;;;;;;;;;;;;;22.85;21.53;98376.19;4899649;29;956;-71
2022/02/11 05:27:00;;;;;;;;;;;;;;;23.73;20.82;98372.22;4899491;29;970;-71
2022/02/11 05:29:26;;;;;;;;;;;;;;;23.60;20.46;98388.38;4899458;29;990;-71
2022/02/11 05:31:51;;;;;;;;;;;;;;;22.97;21.50;98380.38;4880441;29;1144;-71
2022/02/11 05:34:17;;;;;;;;;;;;;;;22.83;21.78;98387.97;4880701;29;1245;-71
2022/02/11 05:36:42;;;;;;;;;;;;;;;23.26;21.22;98381.22;4936298;29;2107;-71
2022/02/11 05:39:08;;;;;;;;;;;;;;;23.99;20.17;98380.78;4934878;29;973;-71
2022/02/11 05:41:33;;;;;;;;;;;;;;;23.46;20.90;98383.09;4968183;28;1782;-71
2022/02/11 05:43:58;;;;;;;;;;;;;;;23.04;21.35;98380.97;4990781;28;2041;-71
2022/02/11 05:46:27;;;;;;;;;;;;;;;22.88;21.80;98381.00;4994437;28;2086;-71
2022/02/11 05:48:53;;;;;;;;;;;;;;;23.57;21.02;98389.25;4995066;28;950;-72
2022/02/11 05:51:18;;;;;;;;;;;;;;;23.86;20.34;98390.06;4994576;28;1078;-71
2022/02/11 05:53:44;;;;;;;;;;;;;;;23.32;20.84;98392.81;4994856;28;1025;-72
2022/02/11 05:56:09;;;;;;;;;;;;;;;22.94;21.56;98392.59;4994438;28;1906;-71
2022/02/11 05:58:36;;;;;;;;;;;;;;;22.74;22.07;98393.50;4994645;28;2045;-71
2022/02/11 06:01:02;;;;;;;;;;;;;;;23.88;20.32;98398.97;4994636;28;1061;-71
2022/02/11 06:03:27;;;;;;;;;;;;;;;23.55;20.57;98391.78;4996877;28;1013;-71
2022/02/11 06:05:52;;;;;;;;;;;;;;;23.06;21.23;98394.75;4998066;28;1044;-71
2022/02/11 06:08:18;;;;;;;;;;;;;;;22.79;21.75;98392.94;4999910;28;1833;-71
2022/02/11 06:10:43;;;;;;;;;;;;;;;23.35;21.20;98392.72;5001432;28;1510;-71
2022/02/11 06:13:09;;;;;;;;;;;;;;;23.80;20.56;98397.56;5016271;28;1004;-71
2022/02/11 06:15:34;;;;;;;;;;;;;;;23.22;21.31;98403.22;5016581;28;1898;-71
2022/02/11 06:18:00;;;;;;;;;;;;;;;22.76;21.67;98402.34;5016282;28;921;-71
2022/02/11 06:20:28;;;;;;;;;;;;;;;23.08;21.22;98409.28;5000522;28;1906;-71
2022/02/11 06:22:56;;;;;;;;;;;;;;;23.07;21.47;98408.47;4997051;28;968;-71
2022/02/11 06:25:22;;;;;;;;;;;;;;;23.39;20.99;98401.13;4996410;28;936;-71
2022/02/11 06:27:47;;;;;;;;;;;;;;;23.50;21.01;98409.34;4996524;28;920;-71
2022/02/11 06:30:13;;;;;;;;;;;;;;;23.31;21.02;98406.22;4996337;28;953;-71
2022/02/11 06:32:38;;;;;;;;;;;;;;;22.99;21.53;98407.06;4978346;28;1272;-71
2022/02/11 06:35:04;;;;;;;;;;;;;;;22.81;21.78;98398.19;5003390;28;1944;-71
2022/02/11 06:37:29;;;;;;;;;;;;;;;23.33;21.19;98398.03;4997414;28;1910;-71
2022/02/11 06:39:55;;;;;;;;;;;;;;;24.01;20.14;98401.03;5016086;28;878;-71
2022/02/11 06:42:20;;;;;;;;;;;;;;;23.38;21.14;98394.66;5016024;28;1028;-71
2022/02/11 06:44:46;;;;;;;;;;;;;;;23.11;21.35;98399.88;5015850;28;919;-71
2022/02/11 06:47:11;;;;;;;;;;;;;;;23.04;21.72;98397.22;4974193;28;1200;-71
2022/02/11 06:49:36;;;;;;;;;;;;;;;23.10;21.33;98398.25;4974536;28;1939;-71
2022/02/11 06:52:02;;;;;;;;;;;;;;;23.82;20.57;98399.94;4974662;28;987;-71
2022/02/11 06:54:28;;;;;;;;;;;;;;;23.20;21.16;98394.34;4974623;28;1008;-71
2022/02/11 06:56:53;;;;;;;;;;;;;;;22.92;21.76;98397.94;4973251;28;2463;-71
2022/02/11 06:59:18;;;;;;;;;;;;;;;23.03;21.35;98398.47;4949626;29;2021;-71
2022/02/11 07:01:44;;;;;;;;;;;;;;;23.46;20.98;98398.09;4955369;29;950;-72
2022/02/11 07:04:09;;;;;;;;;;;;;;;23.46;20.84;98397.28;4965987;28;2011;-71
2022/02/11 07:06:35;;;;;;;;;;;;;;;23.13;21.24;98388.88;4974591;28;999;-71
2022/02/11 07:09:00;;;;;;;;;;;;;;;22.94;21.58;98392.59;4974435;28;991;-71
2022/02/11 07:11:26;;;;;;;;;;;;;;;23.25;21.23;98396.63;4973463;28;962;-71
2022/02/11 07:13:51;;;;;;;;;;;;;;;24.06;20.44;98398.41;4973510;28;2187;-71
2022/02/11 07:16:16;;;;;;;;;;;;;;;23.50;20.89;98395.16;4973917;28;1918;-71
2022/02/11 07:18:42;;;;;;;;;;;;;;;22.97;21.36;98398.19;5004013;28;1106;-71
2022/02/11 07:21:08;;;;;;;;;;;;;;;22.79;21.45;98389.31;5008208;28;1712;-72
2022/02/11 07:23:34;;;;;;;;;;;;;;;22.95;21.58;98388.53;4996356;28;914;-71
2022/02/11 07:25:59;;;;;;;;;;;;;;;24.06;20.29;98403.31;5010133;28;1732;-71
2022/02/11 07:28:25;;;;;;;;;;;;;;;23.32;20.90;98392.81;5015493;28;924;-71
2022/02/11 07:30:51;;;;;;;;;;;;;;;22.88;21.58;98387.47;5015309;28;1161;-71
2022/02/11 07:33:17;;;;;;;;;;;;;;;23.14;21.63;98385.56;4980601;28;1061;-71
2022/02/11 07:35:42;;;;;;;;;;;;;;;23.73;21.01;98386.41;5015581;28;1975;-71
2022/02/11 07:38:08;;;;;;;;;;;;;;;23.64;20.72;98398.44;5015485;28;892;-71
2022/02/11 07:40:33;;;;;;;;;;;;;;;23.19;21.48;98387.06;5010627;28;1681;-71
2022/02/11 07:42:58;;;;;;;;;;;;;;;23.33;21.45;98391.56;4981226;28;1877;-71
2022/02/11 07:45:27;;;;;;;;;;;;;;;23.23;21.31;98389.81;5012541;28;2190;-71
2022/02/11 07:47:52;;;;;;;;;;;;;;;23.12;21.60;98387.28;5000059;28;1006;-72
2022/02/11 07:50:18;;;;;;;;;;;;;;;23.17;21.69;98383.09;4999404;28;894;-71
2022/02/11 07:52:43;;;;;;;;;;;;;;;23.26;21.47;98384.06;4999444;28;856;-71
2022/02/11 07:55:09;;;;;;;;;;;;;;;23.04;21.75;98385.84;4999398;28;986;-71
2022/02/11 07:57:34;;;;;;;;;;;;;;;22.88;21.90;98389.50;4999354;28;1987;-71
2022/02/11 08:00:04;;;;;;;;;;;;;;;22.75;22.17;98391.47;4999065;28;1940;-71
2022/02/11 08:02:37;;;;;;;;;;;;;;;22.96;21.95;98396.63;4998885;28;989;-71
2022/02/11 08:05:05;;;;;;;;;;;;;;;23.23;21.37;98386.97;4999302;28;933;-71
2022/02/11 08:07:30;;;;;;;;;;;;;;;23.10;21.67;98378.38;4998945;28;990;-71
2022/02/11 08:09:56;;;;;;;;;;;;;;;22.92;21.78;98378.06;4977522;28;1982;-72
2022/02/11 08:12:21;;;;;;;;;;;;;;;22.80;22.08;98374.69;4978000;28;2000;-71
2022/02/11 08:14:46;;;;;;;;;;;;;;;22.84;22.17;98378.22;4977402;28;1106;-71
2022/02/11 08:17:12;;;;;;;;;;;;;;;22.91;21.69;98382.16;4992182;28;2072;-71
2022/02/11 08:19:37;;;;;;;;;;;;;;;23.26;21.30;98386.91;4996499;28;1041;-72
2022/02/11 08:22:03;;;;;;;;;;;;;;;22.75;21.77;98380.09;4996580;28;1010;-71
2022/02/11 08:24:28;;;;;;;;;;;;;;;22.60;22.36;98386.13;4988908;28;2034;-71
2022/02/11 08:26:54;;;;;;;;;;;;;;;22.76;21.88;98387.38;4996507;28;1025;-72
2022/02/11 08:29:25;;;;;;;;;;;;;;;23.10;21.60;98381.22;4996312;28;959;-71
2022/02/11 08:31:54;;;;;;;;;;;;;;;23.29;21.34;98388.81;4996244;28;940;-71
2022/02/11 08:34:22;;;;;;;;;;;;;;;22.96;21.71;98385.25;4979787;28;982;-71
2022/02/11 08:36:48;;;;;;;;;;;;;;;22.74;21.99;98384.97;4996041;28;1914;-71
2022/02/11 08:39:14;;;;;;;;;;;;;;;22.73;21.69;98374.06;4987018;28;2003;-71
2022/02/11 08:41:39;;;;;;;;;;;;;;;23.05;21.85;98381.78;4994027;28;2129;-71
2022/02/11 08:44:05;;;;;;;;;;;;;;;23.09;21.59;98376.81;4998472;28;918;-71
2022/02/11 08:46:31;;;;;;;;;;;;;;;23.20;21.30;98376.50;4998245;28;975;-71
2022/02/11 08:48:57;;;;;;;;;;;;;;;23.18;21.30;98379.81;4998326;28;965;-71
2022/02/11 08:51:22;;;;;;;;;;;;;;;22.73;21.88;98372.03;4998228;28;1764;-71
2022/02/11 08:53:51;;;;;;;;;;;;;;;22.33;22.18;98377.88;5003488;28;2402;-71
2022/02/11 08:56:16;;;;;;;;;;;;;;;22.77;22.03;98384.09;5016888;28;1989;-71
2022/02/11 08:58:42;;;;;;;;;;;;;;;23.02;21.57;98371.31;5017742;28;936;-71
2022/02/11 09:01:07;;;;;;;;;;;;;;;23.21;21.25;98378.94;5017808;28;857;-71
2022/02/11 09:03:34;;;;;;;;;;;;;;;23.29;21.10;98383.16;5017576;28;943;-71
2022/02/11 09:06:00;;;;;;;;;;;;;;;22.88;21.71;98384.63;5017278;28;984;-71
2022/02/11 09:08:26;;;;;;;;;;;;;;;22.46;22.23;98382.84;4979469;28;1725;-71
2022/02/11 09:10:52;;;;;;;;;;;;;;;22.54;21.93;98387.09;4998103;28;913;-71
2022/02/11 09:13:17;;;;;;;;;;;;;;;22.97;21.77;98380.38;4997308;28;1287;-71
2022/02/11 09:15:45;;;;;;;;;;;;;;;22.98;21.38;98347.91;4997388;28;1898;-71
2022/02/11 09:18:12;;;;;;;;;;;;;;;23.34;21.32;98388.28;4997541;28;1017;-71
2022/02/11 09:20:37;;;;;;;;;;;;;;;23.28;21.34;98384.41;4997632;28;1220;-71
2022/02/11 09:23:03;;;;;;;;;;;;;;;22.74;21.71;98389.84;4998696;28;1911;-71
2022/02/11 09:25:31;;;;;;;;;;;;;;;22.55;22.33;98389.50;4997581;28;987;-71
2022/02/11 09:27:56;;;;;;;;;;;;;;;22.64;22.03;98380.38;4997191;28;1687;-71
2022/02/11 09:30:22;;;;;;;;;;;;;;;22.93;21.76;98385.34;4997483;28;1006;-71
2022/02/11 09:32:49;;;;;;;;;;;;;;;23.12;21.56;98375.91;5001268;28;1729;-71
2022/02/11 09:35:14;;;;;;;;;;;;;;;23.24;21.49;98372.34;5016909;28;980;-71
2022/02/11 09:37:40;;;;;;;;;;;;;;;22.90;21.63;98374.88;5017110;28;1918;-71
2022/02/11 09:40:06;;;;;;;;;;;;;;;22.69;21.92;98371.34;5016750;28;1003;-71
2022/02/11 09:42:32;;;;;;;;;;;;;;;22.55;22.11;98368.84;5015439;28;1725;-71
2022/02/11 09:44:58;;;;;;;;;;;;;;;22.89;21.96;98368.41;4996963;28;935;-71
2022/02/11 09:47:24;;;;;;;;;;;;;;;23.10;21.57;98375.56;4997130;28;930;-71
2022/02/11 09:49:49;;;;;;;;;;;;;;;23.22;21.44;98368.38;4997262;28;930;-71
2022/02/11 09:52:15;;;;;;;;;;;;;;;23.32;21.22;98361.59;4997032;28;946;-71
2022/02/11 09:54:40;;;;;;;;;;;;;;;22.81;21.89;98356.41;5015577;28;2025;-71
2022/02/11 09:57:06;;;;;;;;;;;;;;;22.69;21.84;98362.00;5016083;28;1979;-71
2022/02/11 09:59:31;;;;;;;;;;;;;;;22.49;22.13;98357.25;5016198;28;918;-71
2022/02/11 10:01:57;;;;;;;;;;;;;;;22.99;21.89;98355.19;5016720;28;1017;-71
2022/02/11 10:04:22;;;;;;;;;;;;;;;23.21;21.49;98350.53;4997327;28;1748;-71
2022/02/11 10:06:48;;;;;;;;;;;;;;;23.12;21.38;98353.22;5016106;28;966;-71
2022/02/11 10:09:14;;;;;;;;;;;;;;;22.85;21.81;98351.47;5015961;28;1019;-71
2022/02/11 10:11:40;;;;;;;;;;;;;;;22.59;22.18;98349.72;5016532;28;1014;-71
2022/02/11 10:14:19;;;;;;;;;;;;;;;22.48;22.21;98346.31;5002594;28;1929;-71
2022/02/11 10:16:56;;;;;;;;;;;;;;;22.81;21.73;98342.25;5016354;28;1910;-71
2022/02/11 10:19:37;;;;;;;;;;;;;;;23.11;21.64;98331.75;4997856;28;1061;-71
2022/02/11 10:22:09;;;;;;;;;;;;;;;23.20;21.42;98340.41;5016592;28;912;-71
2022/02/11 10:24:36;;;;;;;;;;;;;;;23.30;21.26;98330.78;4994257;28;2092;-71
2022/02/11 10:27:14;;;;;;;;;;;;;;;22.97;21.44;98329.28;4996708;28;906;-71
2022/02/11 10:29:39;;;;;;;;;;;;;;;22.65;22.11;98324.44;4996570;28;981;-71
2022/02/11 10:32:05;;;;;;;;;;;;;;;22.52;22.32;98332.84;4996347;28;892;-71
2022/02/11 10:34:31;;;;;;;;;;;;;;;22.96;21.80;98316.34;4993674;28;2045;-71
2022/02/11 10:36:56;;;;;;;;;;;;;;;23.16;21.60;98319.03;4998979;28;1967;-71
2022/02/11 10:39:26;;;;;;;;;;;;;;;23.23;21.12;98318.84;4996528;28;924;-71
2022/02/11 10:41:54;;;;;;;;;;;;;;;23.23;21.05;98313.16;4996584;28;887;-71
2022/02/11 10:44:21;;;;;;;;;;;;;;;23.01;21.60;98310.13;5009940;28;1710;-71
2022/02/11 10:46:48;;;;;;;;;;;;;;;22.69;21.92;98314.59;5016062;28;887;-71
2022/02/11 10:49:14;;;;;;;;;;;;;;;22.77;21.86;98313.16;5016186;28;893;-71
2022/02/11 10:51:40;;;;;;;;;;;;;;;23.16;21.52;98314.19;5016094;28;927;-71
2022/02/11 10:54:24;;;;;;;;;;;;;;;23.22;21.34;98314.44;5003705;28;1992;-71
2022/02/11 10:57:00;;;;;;;;;;;;;;;23.16;21.35;98302.81;4995965;28;1911;-71
2022/02/11 10:59:29;;;;;;;;;;;;;;;23.19;21.35;98312.47;4995774;28;1028;-71
2022/02/11 11:01:55;;;;;;;;;;;;;;;22.79;21.95;98307.81;4996463;28;1184;-71
2022/02/11 11:04:21;;;;;;;;;;;;;;;22.61;21.92;98307.50;5009692;28;2157;-71
2022/02/11 11:06:46;;;;;;;;;;;;;;;22.72;21.90;98296.69;5015818;28;984;-71
2022/02/11 11:09:12;;;;;;;;;;;;;;;22.97;21.70;98300.91;5014535;28;891;-71
2022/02/11 11:11:38;;;;;;;;;;;;;;;23.06;21.65;98306.75;4973556;28;1012;-71
2022/02/11 11:14:04;;;;;;;;;;;;;;;23.13;21.27;98292.34;4962774;28;1681;-71
2022/02/11 11:16:29;;;;;;;;;;;;;;;23.25;21.35;98288.75;4954663;28;2309;-71
2022/02/11 11:18:55;;;;;;;;;;;;;;;23.26;21.00;98279.00;4955987;28;1054;-72
2022/02/11 11:21:20;;;;;;;;;;;;;;;22.75;21.99;98286.50;4965412;28;2021;-71
2022/02/11 11:23:53;;;;;;;;;;;;;;;22.54;22.33;98285.81;4978189;28;979;-71
2022/02/11 11:26:19;;;;;;;;;;;;;;;22.59;22.15;98287.31;4978009;28;1044;-71
2022/02/11 11:28:44;;;;;;;;;;;;;;;22.98;21.75;98285.47;4977874;28;963;-71
2022/02/11 11:31:10;;;;;;;;;;;;;;;23.19;21.24;98284.88;4972643;28;2135;-71
2022/02/11 11:33:35;;;;;;;;;;;;;;;23.18;21.32;98288.97;4967814;28;1773;-71
2022/02/11 11:36:03;;;;;;;;;;;;;;;22.77;21.88;98281.16;4977893;28;1906;-72
2022/02/11 11:38:39;;;;;;;;;;;;;;;22.60;22.08;98281.19;4967668;28;1782;-71
2022/02/11 11:41:08;;;;;;;;;;;;;;;22.72;22.13;98285.31;4958404;29;1267;-71
2022/02/11 11:43:37;;;;;;;;;;;;;;;22.98;21.93;98279.81;4976513;28;1280;-71
2022/02/11 11:46:03;;;;;;;;;;;;;;;23.21;21.47;98278.75;4999777;28;1043;-71
2022/02/11 11:48:28;;;;;;;;;;;;;;;22.93;21.70;98271.84;5008950;28;1945;-71
2022/02/11 11:50:57;;;;;;;;;;;;;;;22.57;22.27;98267.09;5018758;28;941;-71
2022/02/11 11:53:26;;;;;;;;;;;;;;;22.55;22.24;98269.59;5018931;28;1038;-71
2022/02/11 11:55:52;;;;;;;;;;;;;;;22.98;21.67;98259.94;4996779;28;1914;-71
2022/02/11 11:58:31;;;;;;;;;;;;;;;23.26;21.54;98255.47;4996768;28;2210;-71
2022/02/11 12:01:01;;;;;;;;;;;;;;;23.33;21.25;98253.25;4997081;28;1041;-71
2022/02/11 12:03:27;;;;;;;;;;;;;;;22.99;21.80;98253.00;4997189;28;1020;-71
2022/02/11 12:05:56;;;;;;;;;;;;;;;22.65;22.23;98254.31;4980530;28;1039;-71
2022/02/11 12:08:24;;;;;;;;;;;;;;;22.50;22.53;98255.94;4996539;28;1768;-71
2022/02/11 12:10:50;;;;;;;;;;;;;;;23.03;21.96;98243.16;4964718;28;977;-71
2022/02/11 12:13:18;;;;;;;;;;;;;;;23.20;21.67;98238.19;4987995;28;1197;-71
2022/02/11 12:15:43;;;;;;;;;;;;;;;23.28;21.32;98247.31;4961107;28;1914;-71
2022/02/11 12:18:09;;;;;;;;;;;;;;;22.94;21.89;98233.69;4960635;28;2086;-71
2022/02/11 12:20:38;;;;;;;;;;;;;;;22.58;22.33;98235.44;4977412;28;986;-71
2022/02/11 12:28:35;;;;;;;;;;;;;;;23.21;21.37;98239.81;4998680;28;916;-71
2022/02/11 12:31:04;;;;;;;;;;;;;;;23.26;21.68;98229.94;4998213;28;930;-71
2022/02/11 12:33:29;;;;;;;;;;;;;;;23.37;21.38;98236.09;5000024;28;2299;-71
2022/02/11 12:36:06;;;;;;;;;;;;;;;22.88;21.97;98242.75;5000669;28;1902;-71
2022/02/11 12:38:31;;;;;;;;;;;;;;;22.50;22.61;98238.94;5017855;28;967;-71
2022/02/11 12:40:57;;;;;;;;;;;;;;;22.67;22.26;98236.84;5018678;28;920;-71
2022/02/11 12:43:26;;;;;;;;;;;;;;;23.07;21.65;98229.66;5018148;28;1725;-71
2022/02/11 12:45:52;;;;;;;;;;;;;;;23.11;21.78;98238.09;4998388;28;915;-71
2022/02/11 12:48:17;;;;;;;;;;;;;;;23.24;21.63;98236.06;4981276;28;932;-71
2022/02/11 12:50:44;;;;;;;;;;;;;;;22.99;21.69;98230.31;4998311;28;860;-71
2022/02/11 12:53:10;;;;;;;;;;;;;;;22.66;22.16;98236.06;4998405;28;901;-71
2022/02/11 12:55:36;;;;;;;;;;;;;;;22.63;22.35;98236.94;5015668;28;1969;-71
2022/02/11 12:58:03;;;;;;;;;;;;;;;22.91;21.78;98234.63;5017750;28;924;-71
2022/02/11 13:00:30;;;;;;;;;;;;;;;23.07;21.65;98237.38;4999179;28;991;-71
2022/02/11 13:02:58;;;;;;;;;;;;;;;23.08;21.74;98233.31;5007843;28;1780;-71
2022/02/11 13:05:24;;;;;;;;;;;;;;;23.30;21.71;98234.25;4998127;28;1038;-71
2022/02/11 13:07:56;;;;;;;;;;;;;;;22.99;21.86;98225.44;4997590;28;1215;-71
2022/02/11 13:10:25;;;;;;;;;;;;;;;22.73;22.36;98232.22;4998062;28;1029;-71
2022/02/11 13:12:54;;;;;;;;;;;;;;;22.51;22.58;98229.19;4979602;28;2077;-71
2022/02/11 13:15:20;;;;;;;;;;;;;;;22.91;21.92;98223.25;4980631;28;930;-71
2022/02/11 13:17:46;;;;;;;;;;;;;;;23.17;21.88;98230.59;4998097;28;1914;-71
2022/02/11 13:20:12;;;;;;;;;;;;;;;23.25;21.70;98229.13;4998116;28;886;-71
2022/02/11 13:22:42;;;;;;;;;;;;;;;23.04;21.58;98227.72;4997585;28;2329;-71
2022/02/11 13:25:08;;;;;;;;;;;;;;;22.50;22.52;98222.72;4980556;28;1074;-71
2022/02/11 13:27:43;;;;;;;;;;;;;;;22.38;22.84;98216.97;4998333;28;1768;-71
2022/02/11 13:30:10;;;;;;;;;;;;;;;23.04;21.78;98215.56;4997815;28;921;-71
2022/02/11 13:32:35;;;;;;;;;;;;;;;23.09;21.71;98223.53;4998548;28;1652;-71
2022/02/11 13:35:01;;;;;;;;;;;;;;;23.17;21.65;98212.78;5017321;28;963;-71
2022/02/11 13:37:36;;;;;;;;;;;;;;;23.15;21.76;98216.06;4975456;28;1906;-71
2022/02/11 13:40:15;;;;;;;;;;;;;;;22.81;22.15;98214.56;4975858;28;1052;-71
2022/02/11 13:42:40;;;;;;;;;;;;;;;22.46;22.35;98210.66;4974816;28;1984;-71
2022/02/11 13:45:07;;;;;;;;;;;;;;;22.60;22.57;98215.16;4975376;28;1797;-71
2022/02/11 13:47:33;;;;;;;;;;;;;;;22.88;21.96;98208.72;4936934;29;978;-71
2022/02/11 13:50:02;;;;;;;;;;;;;;;23.02;21.89;98206.72;4937027;29;942;-71
2022/02/11 13:55:12;;;;;;;;;;;;;;;23.03;21.60;98214.78;4935330;29;2150;-71
2022/02/11 13:57:38;;;;;;;;;;;;;;;22.68;22.14;98210.09;4936710;29;1914;-71
2022/02/11 14:00:22;;;;;;;;;;;;;;;22.50;22.66;98211.38;4936647;29;1046;-71
2022/02/11 14:02:47;;;;;;;;;;;;;;;22.72;22.48;98220.09;4936388;29;2040;-71
2022/02/11 14:05:12;;;;;;;;;;;;;;;22.99;22.13;98207.59;4936856;29;1037;-71
2022/02/11 14:07:38;;;;;;;;;;;;;;;23.15;21.69;98210.38;4939918;29;947;-71
2022/02/11 14:10:18;;;;;;;;;;;;;;;23.21;21.43;98208.59;4955825;29;966;-72
2022/02/11 14:12:44;;;;;;;;;;;;;;;22.93;21.69;98212.25;4960151;28;1838;-71
2022/02/11 14:15:09;;;;;;;;;;;;;;;22.75;22.34;98215.56;4994725;28;983;-71
2022/02/11 14:17:35;;;;;;;;;;;;;;;22.61;22.54;98211.09;4994631;28;1936;-71
2022/02/11 14:20:01;;;;;;;;;;;;;;;22.98;22.17;98215.34;4996944;28;836;-71
2022/02/11 14:22:26;;;;;;;;;;;;;;;23.19;21.56;98208.22;4994525;28;1025;-71
2022/02/11 14:24:52;;;;;;;;;;;;;;;23.23;21.77;98211.75;5013627;28;2005;-71
2022/02/11 14:27:17;;;;;;;;;;;;;;;23.26;21.63;98205.19;5016176;28;932;-71
2022/02/11 14:29:43;;;;;;;;;;;;;;;22.99;21.89;98196.25;5016229;28;931;-71
2022/02/11 14:32:08;;;;;;;;;;;;;;;22.79;22.38;98199.22;5016205;28;1220;-71
2022/02/11 14:34:34;;;;;;;;;;;;;;;22.41;22.55;98196.25;5001803;28;1744;-71
2022/02/11 14:36:59;;;;;;;;;;;;;;;22.82;22.04;98187.78;4996074;28;1914;-71
2022/02/11 14:39:25;;;;;;;;;;;;;;;23.09;21.68;98206.50;4996466;28;945;-71
2022/02/11 14:41:51;;;;;;;;;;;;;;;23.12;21.86;98205.63;4996400;28;966;-71
2022/02/11 14:44:23;;;;;;;;;;;;;;;23.32;21.55;98209.06;5007760;28;1895;-71
2022/02/11 14:46:49;;;;;;;;;;;;;;;22.75;22.30;98207.84;5016004;28;1076;-71
2022/02/11 14:49:17;;;;;;;;;;;;;;;22.60;22.47;98215.16;5016169;28;923;-71
2022/02/11 14:51:43;;;;;;;;;;;;;;;22.67;22.56;98220.63;5015793;28;928;-71
2022/02/11 14:54:09;;;;;;;;;;;;;;;23.07;21.94;98214.69;4993585;28;1743;-71
2022/02/11 14:56:35;;;;;;;;;;;;;;;23.31;21.70;98218.84;5011128;28;1910;-71
2022/02/11 14:59:00;;;;;;;;;;;;;;;23.26;21.47;98215.72;5015769;28;876;-71
2022/02/11 15:01:25;;;;;;;;;;;;;;;22.88;21.93;98220.06;5015719;28;1022;-71
2022/02/11 15:03:51;;;;;;;;;;;;;;;22.44;22.84;98226.53;5007734;28;1879;-71
2022/02/11 15:06:16;;;;;;;;;;;;;;;22.58;22.63;98223.31;4994930;28;1228;-71
2022/02/11 15:08:42;;;;;;;;;;;;;;;23.00;21.95;98214.88;4995774;28;1071;-71
2022/02/11 15:11:07;;;;;;;;;;;;;;;23.11;21.97;98215.38;4996113;28;978;-71
2022/02/11 15:13:33;;;;;;;;;;;;;;;23.25;21.89;98219.81;4999850;28;2042;-71
2022/02/11 15:15:59;;;;;;;;;;;;;;;23.42;21.23;98212.81;5015740;28;1898;-71
2022/02/11 15:18:24;;;;;;;;;;;;;;;22.90;22.12;98210.31;5015946;28;1030;-71
2022/02/11 15:20:50;;;;;;;;;;;;;;;22.70;22.46;98214.06;5015900;28;975;-71
2022/02/11 15:23:15;;;;;;;;;;;;;;;22.68;22.55;98216.53;5012843;28;1802;-71
2022/02/11 15:25:41;;;;;;;;;;;;;;;23.03;21.96;98225.34;4995908;28;986;-71
2022/02/11 15:28:07;;;;;;;;;;;;;;;23.10;21.71;98225.13;4995802;28;973;-71
2022/02/11 15:30:33;;;;;;;;;;;;;;;23.23;21.56;98223.13;4996072;28;834;-72
2022/02/11 15:32:59;;;;;;;;;;;;;;;23.18;21.46;98226.50;4996315;28;1725;-71
2022/02/11 15:35:25;;;;;;;;;;;;;;;22.61;22.66;98228.88;5010813;28;1714;-71
2022/02/11 15:37:52;;;;;;;;;;;;;;;22.43;22.85;98230.59;4995833;28;1975;-71
2022/02/11 15:40:18;;;;;;;;;;;;;;;23.03;22.00;98231.00;5001458;28;2002;-71
2022/02/11 15:42:43;;;;;;;;;;;;;;;23.14;21.65;98237.97;5001894;28;1789;-71
2022/02/11 15:45:09;;;;;;;;;;;;;;;23.13;21.66;98235.59;4995906;28;952;-71
2022/02/11 15:47:34;;;;;;;;;;;;;;;23.20;21.72;98228.91;4995536;28;972;-71
2022/02/11 15:50:00;;;;;;;;;;;;;;;22.71;22.30;98229.84;5002110;28;1969;-71
2022/02/11 15:52:25;;;;;;;;;;;;;;;22.40;23.04;98242.84;5013087;28;1858;-71
2022/02/11 15:54:51;;;;;;;;;;;;;;;22.73;22.43;98235.06;5014236;28;961;-71
2022/02/11 15:57:18;;;;;;;;;;;;;;;23.12;21.90;98242.50;5014498;28;1898;-71
2022/02/11 15:59:43;;;;;;;;;;;;;;;23.16;21.95;98243.22;5015544;28;976;-71
2022/02/11 16:02:09;;;;;;;;;;;;;;;23.27;21.42;98245.75;5006735;28;1699;-71
2022/02/11 16:04:34;;;;;;;;;;;;;;;23.21;21.55;98244.66;4996422;28;960;-71
2022/02/11 16:07:00;;;;;;;;;;;;;;;22.83;22.17;98257.47;4999010;28;853;-71
2022/02/11 16:09:26;;;;;;;;;;;;;;;22.71;22.41;98260.25;4998919;28;1175;-71
2022/02/11 16:11:52;;;;;;;;;;;;;;;22.83;22.34;98254.63;5004801;28;1618;-71
2022/02/11 16:14:17;;;;;;;;;;;;;;;23.09;22.00;98254.75;5018465;28;1176;-71
2022/02/11 16:16:43;;;;;;;;;;;;;;;23.28;21.61;98253.00;4983976;28;1981;-71
2022/02/11 16:19:09;;;;;;;;;;;;;;;23.17;21.75;98247.63;5018522;28;936;-71
2022/02/11 16:21:34;;;;;;;;;;;;;;;23.17;21.92;98249.69;5014751;28;2135;-71
2022/02/11 16:24:00;;;;;;;;;;;;;;;22.51;22.58;98251.88;4998710;28;1019;-71
2022/02/11 16:26:25;;;;;;;;;;;;;;;22.53;22.45;98255.03;4998776;28;930;-71
2022/02/11 16:28:50;;;;;;;;;;;;;;;23.00;21.88;98254.59;4980389;28;1041;-71
2022/02/11 16:31:20;;;;;;;;;;;;;;;23.16;21.97;98256.59;4999277;28;1737;-71
2022/02/11 16:33:45;;;;;;;;;;;;;;;23.27;21.67;98259.94;5018158;28;918;-71
2022/02/11 16:36:11;;;;;;;;;;;;;;;23.28;21.80;98264.34;5018097;28;1914;-71
2022/02/11 16:38:40;;;;;;;;;;;;;;;23.21;21.85;98259.69;4999655;28;1046;-71
2022/02/11 16:41:06;;;;;;;;;;;;;;;22.71;22.50;98266.72;5018087;28;917;-71
2022/02/11 16:43:31;;;;;;;;;;;;;;;22.59;22.69;98273.94;4998874;28;2169;-71
2022/02/11 16:45:57;;;;;;;;;;;;;;;22.79;22.13;98273.78;5004387;28;1930;-71
2022/02/11 16:48:22;;;;;;;;;;;;;;;23.06;21.89;98272.69;4982941;28;1969;-71
2022/02/11 16:50:48;;;;;;;;;;;;;;;23.26;21.55;98267.66;5017652;28;928;-71
2022/02/11 16:53:13;;;;;;;;;;;;;;;23.32;21.60;98262.22;5001474;28;1713;-71